Time;durP1;ratioP1;P1;durP2;ratioP2;P2;SDS_P1;SDS_P2;PMS_P1;PMS_P2;Temp;Humidity;BMP_temperature;BMP_pressure;BME280_temperature;BME280_humidity;BME280_pressure;Samples;Min_cycle;Max_cycle;Signal;HPM_P1;HPM_P2
2023/08/03 00:00:06;;;;;;;7.07;2.25;;;;;;;;;;4933562;28;20042;-87
2023/08/03 00:02:36;;;;;;;5.47;2.00;;;;;;;;;;4945678;28;20042;-87
2023/08/03 00:05:03;;;;;;;8.05;2.35;;;;;;;;;;4975728;28;20804;-86
2023/08/03 00:07:29;;;;;;;11.32;2.40;;;;;;;;;;4965731;28;20089;-86
2023/08/03 00:09:55;;;;;;;8.98;2.42;;;;;;;;;;4980348;28;20054;-87
2023/08/03 00:12:22;;;;;;;6.47;2.65;;;;;;;;;;4951649;28;20062;-86
2023/08/03 00:14:49;;;;;;;8.75;2.60;;;;;;;;;;4948513;28;20160;-87
2023/08/03 00:17:19;;;;;;;6.25;1.90;;;;;;;;;;4935189;28;20073;-86
2023/08/03 00:19:45;;;;;;;7.32;2.15;;;;;;;;;;4980548;28;20103;-85
2023/08/03 00:22:11;;;;;;;8.73;2.38;;;;;;;;;;4979551;28;20070;-86
2023/08/03 00:24:39;;;;;;;7.68;2.30;;;;;;;;;;4948098;28;20120;-86
2023/08/03 00:27:05;;;;;;;;;;;;;;;;;;4965227;28;20059;-86
2023/08/03 00:29:31;;;;;;;7.95;1.98;;;;;;;;;;4964658;28;19930;-87
2023/08/03 00:32:00;;;;;;;8.32;2.00;;;;;;;;;;4964452;28;20043;-87
2023/08/03 00:34:32;;;;;;;5.70;1.92;;;;;;;;;;4981306;28;20094;-87
2023/08/03 00:36:58;;;;;;;6.85;2.03;;;;;;;;;;4964703;28;20125;-87
2023/08/03 00:39:24;;;;;;;6.97;2.30;;;;;;;;;;4964815;28;20043;-86
2023/08/03 00:41:50;;;;;;;8.00;2.67;;;;;;;;;;4951608;28;20053;-85
2023/08/03 00:44:16;;;;;;;7.82;2.30;;;;;;;;;;4965958;28;20043;-86
2023/08/03 00:46:42;;;;;;;7.38;2.40;;;;;;;;;;4951713;28;20515;-87
2023/08/03 00:49:08;;;;;;;7.18;2.35;;;;;;;;;;4963349;28;20387;-87
2023/08/03 00:51:34;;;;;;;7.57;2.15;;;;;;;;;;4963348;28;20363;-86
2023/08/03 00:54:00;;;;;;;8.75;2.22;;;;;;;;;;4948897;28;20507;-87
2023/08/03 00:56:29;;;;;;;10.23;2.70;;;;;;;;;;4963076;28;20187;-87
2023/08/03 00:59:00;;;;;;;8.82;2.25;;;;;;;;;;4933224;28;20104;-87
2023/08/03 01:01:27;;;;;;;9.20;2.50;;;;;;;;;;4963813;28;20134;-87
2023/08/03 01:03:54;;;;;;;8.48;2.13;;;;;;;;;;4960708;28;20792;-87
2023/08/03 01:06:20;;;;;;;8.85;2.33;;;;;;;;;;4962544;28;20054;-88
2023/08/03 01:08:46;;;;;;;7.22;1.85;;;;;;;;;;4931196;28;20495;-87
2023/08/03 01:11:15;;;;;;;5.18;2.05;;;;;;;;;;4977658;28;20060;-87
2023/08/03 01:13:44;;;;;;;6.00;1.88;;;;;;;;;;4933119;28;20455;-87
2023/08/03 01:16:10;;;;;;;9.82;2.63;;;;;;;;;;4978663;28;20481;-86
2023/08/03 01:18:43;;;;;;;7.43;1.92;;;;;;;;;;4980011;28;20101;-87
2023/08/03 01:21:09;;;;;;;8.13;2.13;;;;;;;;;;4965998;28;20487;-86
2023/08/03 01:23:36;;;;;;;5.88;2.05;;;;;;;;;;4935149;28;20458;-87
2023/08/03 01:26:02;;;;;;;3.35;1.65;;;;;;;;;;4962784;28;20043;-87
2023/08/03 01:28:30;;;;;;;6.90;1.80;;;;;;;;;;4981529;28;20062;-87
2023/08/03 01:30:57;;;;;;;6.80;2.33;;;;;;;;;;4982915;28;20047;-87
2023/08/03 01:33:23;;;;;;;4.85;1.55;;;;;;;;;;4981526;28;20065;-88
2023/08/03 01:35:50;;;;;;;8.25;1.63;;;;;;;;;;4976886;28;20449;-87
2023/08/03 01:38:16;;;;;;;5.18;1.48;;;;;;;;;;4981288;28;20578;-87
2023/08/03 01:40:42;;;;;;;6.65;1.77;;;;;;;;;;4980865;28;20146;-87
2023/08/03 01:43:08;;;;;;;4.25;1.40;;;;;;;;;;4977635;28;20074;-88
2023/08/03 01:45:37;;;;;;;4.63;1.30;;;;;;;;;;4953626;28;20085;-87
2023/08/03 01:48:03;;;;;;;3.65;1.30;;;;;;;;;;4965226;28;20137;-87
2023/08/03 01:50:29;;;;;;;4.65;1.52;;;;;;;;;;4978991;28;20074;-86
2023/08/03 01:52:55;;;;;;;2.67;1.02;;;;;;;;;;4977228;28;20054;-87
2023/08/03 01:55:21;;;;;;;3.63;1.20;;;;;;;;;;4962928;28;20047;-87
2023/08/03 01:57:47;;;;;;;3.85;1.30;;;;;;;;;;4971984;28;20057;-87
2023/08/03 02:00:24;;;;;;;4.03;1.40;;;;;;;;;;4948629;28;20431;-87
2023/08/03 02:02:51;;;;;;;4.97;1.40;;;;;;;;;;4986234;28;20058;-87
2023/08/03 02:05:17;;;;;;;3.88;1.48;;;;;;;;;;4981054;28;20043;-87
2023/08/03 02:07:43;;;;;;;4.28;1.30;;;;;;;;;;4958364;28;20463;-87
2023/08/03 02:10:10;;;;;;;2.67;1.60;;;;;;;;;;4948990;28;20049;-87
2023/08/03 02:12:36;;;;;;;4.47;2.03;;;;;;;;;;4963163;28;20093;-89
2023/08/03 02:15:02;;;;;;;4.15;1.52;;;;;;;;;;4974713;28;20050;-88
2023/08/03 02:17:28;;;;;;;2.80;1.70;;;;;;;;;;4963283;28;20051;-88
2023/08/03 02:19:55;;;;;;;4.03;1.70;;;;;;;;;;4966134;28;20059;-88
2023/08/03 02:22:21;;;;;;;4.43;1.77;;;;;;;;;;4965035;28;20416;-88
2023/08/03 02:24:50;;;;;;;3.35;1.60;;;;;;;;;;4965258;28;20130;-87
2023/08/03 02:27:16;;;;;;;3.38;1.90;;;;;;;;;;4964838;28;20466;-88
2023/08/03 02:29:42;;;;;;;4.15;1.70;;;;;;;;;;4951373;28;20080;-88
2023/08/03 02:32:08;;;;;;;2.97;1.70;;;;;;;;;;4983478;28;20299;-88
2023/08/03 02:34:34;;;;;;;4.28;1.65;;;;;;;;;;4977037;28;20586;-87
2023/08/03 02:37:03;;;;;;;6.00;2.17;;;;;;;;;;4983943;28;20050;-88
2023/08/03 02:39:32;;;;;;;5.32;2.10;;;;;;;;;;4966006;28;20046;-88
2023/08/03 02:41:58;;;;;;;4.35;2.50;;;;;;;;;;4972967;28;20149;-87
2023/08/03 02:44:24;;;;;;;3.40;2.30;;;;;;;;;;4967116;28;20452;-87
2023/08/03 02:46:53;;;;;;;2.70;2.30;;;;;;;;;;4975172;28;20113;-87
2023/08/03 02:49:19;;;;;;;4.32;2.13;;;;;;;;;;4967903;28;20042;-87
2023/08/03 02:51:45;;;;;;;3.47;2.30;;;;;;;;;;4966411;28;20592;-88
2023/08/03 02:54:12;;;;;;;2.85;2.30;;;;;;;;;;4985006;28;20072;-88
2023/08/03 02:56:38;;;;;;;5.32;2.67;;;;;;;;;;4955715;28;20422;-87
2023/08/03 02:59:04;;;;;;;4.35;2.60;;;;;;;;;;4954647;28;20047;-87
2023/08/03 03:01:30;;;;;;;4.63;2.75;;;;;;;;;;4967105;28;20058;-87
2023/08/03 03:03:59;;;;;;;4.18;2.35;;;;;;;;;;4986800;28;20581;-86
2023/08/03 03:06:28;;;;;;;6.05;2.45;;;;;;;;;;4951593;28;20116;-87
2023/08/03 03:08:54;;;;;;;6.30;3.20;;;;;;;;;;4937086;28;20344;-87
2023/08/03 03:11:20;;;;;;;4.90;2.80;;;;;;;;;;4981216;28;20058;-86
2023/08/03 03:13:46;;;;;;;6.20;2.92;;;;;;;;;;4947491;28;20039;-87
2023/08/03 03:16:12;;;;;;;4.70;2.90;;;;;;;;;;4946773;28;20042;-87
2023/08/03 03:18:38;;;;;;;4.18;2.67;;;;;;;;;;4984249;28;20093;-87
2023/08/03 03:21:04;;;;;;;5.57;2.97;;;;;;;;;;4950809;28;20108;-87
2023/08/03 03:23:30;;;;;;;3.90;2.63;;;;;;;;;;4970851;28;20054;-88
2023/08/03 03:25:56;;;;;;;3.15;2.45;;;;;;;;;;4981875;28;20470;-87
2023/08/03 03:28:22;;;;;;;5.45;2.88;;;;;;;;;;4967614;28;20074;-87
2023/08/03 03:30:48;;;;;;;4.93;2.95;;;;;;;;;;4967387;28;20109;-87
2023/08/03 03:33:14;;;;;;;5.82;2.72;;;;;;;;;;4966871;28;20034;-87
2023/08/03 03:35:39;;;;;;;6.47;3.33;;;;;;;;;;4966626;28;20137;-87
2023/08/03 03:38:05;;;;;;;7.88;3.63;;;;;;;;;;4965624;28;20038;-88
2023/08/03 03:40:31;;;;;;;6.60;3.60;;;;;;;;;;4966235;28;20080;-87
2023/08/03 03:42:57;;;;;;;5.05;3.70;;;;;;;;;;4968781;28;20136;-88
2023/08/03 03:45:23;;;;;;;6.65;4.38;;;;;;;;;;4967231;28;20548;-88
2023/08/03 03:47:59;;;;;;;5.20;4.05;;;;;;;;;;4986483;28;20568;-89
2023/08/03 03:50:26;;;;;;;7.47;5.10;;;;;;;;;;4984128;28;21308;-88
2023/08/03 03:52:56;;;;;;;10.30;5.43;;;;;;;;;;4968975;28;20827;-88
2023/08/03 03:55:22;;;;;;;13.00;6.78;;;;;;;;;;4967432;28;20634;-88
2023/08/03 03:57:48;;;;;;;10.35;7.13;;;;;;;;;;4950863;28;20045;-87
2023/08/03 04:00:14;;;;;;;12.95;7.30;;;;;;;;;;4984784;28;20042;-87
2023/08/03 04:02:40;;;;;;;16.20;8.35;;;;;;;;;;4968806;28;20177;-87
2023/08/03 04:05:06;;;;;;;17.45;9.07;;;;;;;;;;4953372;28;20930;-87
2023/08/03 04:07:35;;;;;;;14.05;9.05;;;;;;;;;;4948955;28;20133;-87
2023/08/03 04:10:04;;;;;;;15.77;8.88;;;;;;;;;;4949488;28;20502;-88
2023/08/03 04:12:33;;;;;;;14.70;9.73;;;;;;;;;;4965722;28;20049;-88
2023/08/03 04:15:01;;;;;;;21.50;9.75;;;;;;;;;;4945349;28;20049;-87
2023/08/03 04:17:30;;;;;;;13.85;9.82;;;;;;;;;;4954348;28;20085;-87
2023/08/03 04:19:56;;;;;;;15.40;9.52;;;;;;;;;;4967467;28;20089;-87
2023/08/03 04:22:22;;;;;;;17.60;9.82;;;;;;;;;;4966978;28;20070;-87
2023/08/03 04:24:48;;;;;;;18.40;9.07;;;;;;;;;;4965135;28;20070;-87
2023/08/03 04:27:17;;;;;;;16.60;9.15;;;;;;;;;;4945813;28;20043;-86
2023/08/03 04:29:43;;;;;;;17.35;8.35;;;;;;;;;;4949404;28;20598;-87
2023/08/03 04:32:10;;;;;;;20.77;9.65;;;;;;;;;;4939984;28;20521;-86
2023/08/03 04:34:36;;;;;;;17.05;9.68;;;;;;;;;;4965438;28;20051;-87
2023/08/03 04:37:02;;;;;;;18.02;9.10;;;;;;;;;;4945950;28;20047;-86
2023/08/03 04:39:28;;;;;;;18.67;8.63;;;;;;;;;;4964701;28;20069;-88
2023/08/03 04:41:54;;;;;;;16.98;8.68;;;;;;;;;;4961309;28;20404;-87
2023/08/03 04:44:23;;;;;;;22.10;9.05;;;;;;;;;;4957305;28;20081;-85
2023/08/03 04:46:52;;;;;;;17.85;8.50;;;;;;;;;;4950820;28;20043;-86
2023/08/03 04:49:18;;;;;;;14.75;7.55;;;;;;;;;;4968637;28;20049;-87
2023/08/03 04:51:44;;;;;;;17.88;7.60;;;;;;;;;;4951763;28;20133;-87
2023/08/03 04:54:13;;;;;;;18.92;7.13;;;;;;;;;;4969057;28;20047;-87
2023/08/03 04:56:39;;;;;;;16.45;6.10;;;;;;;;;;4950044;28;20065;-86
2023/08/03 04:59:08;;;;;;;16.58;5.75;;;;;;;;;;4951402;28;20042;-87
2023/08/03 05:01:37;;;;;;;11.48;5.70;;;;;;;;;;4965503;28;20158;-87
2023/08/03 05:04:05;;;;;;;23.25;5.25;;;;;;;;;;4962637;28;20440;-87
2023/08/03 05:06:31;;;;;;;18.17;5.72;;;;;;;;;;4965276;28;20042;-86
2023/08/03 05:08:57;;;;;;;21.48;5.43;;;;;;;;;;4966813;28;20051;-86
2023/08/03 05:11:25;;;;;;;18.13;4.80;;;;;;;;;;4966500;28;20046;-87
2023/08/03 05:13:51;;;;;;;15.77;4.40;;;;;;;;;;4951246;28;20050;-87
2023/08/03 05:16:24;;;;;;;15.65;3.75;;;;;;;;;;4966447;28;20067;-87
2023/08/03 05:18:53;;;;;;;13.32;3.85;;;;;;;;;;4973063;28;20073;-87
2023/08/03 05:21:19;;;;;;;10.20;3.22;;;;;;;;;;4985464;28;20047;-87
2023/08/03 05:23:45;;;;;;;12.90;3.53;;;;;;;;;;4986834;28;20039;-87
2023/08/03 05:26:11;;;;;;;17.73;3.83;;;;;;;;;;4971066;28;20547;-86
2023/08/03 05:28:37;;;;;;;14.75;3.47;;;;;;;;;;4971536;28;20112;-87
2023/08/03 05:31:05;;;;;;;13.90;4.00;;;;;;;;;;4986762;28;20419;-86
2023/08/03 05:33:33;;;;;;;15.27;4.63;;;;;;;;;;4969253;28;20411;-87
2023/08/03 05:35:59;;;;;;;14.07;3.80;;;;;;;;;;4969806;28;20097;-87
2023/08/03 05:38:25;;;;;;;15.05;4.30;;;;;;;;;;4971715;28;20046;-87
2023/08/03 05:40:52;;;;;;;11.88;3.88;;;;;;;;;;4984610;28;20088;-88
2023/08/03 05:43:18;;;;;;;9.80;3.92;;;;;;;;;;4986066;28;20387;-88
2023/08/03 05:45:44;;;;;;;13.02;4.53;;;;;;;;;;4981965;28;20717;-86
2023/08/03 05:48:15;;;;;;;11.85;3.90;;;;;;;;;;4986485;28;20454;-90
2023/08/03 05:50:42;;;;;;;13.25;4.00;;;;;;;;;;4965886;28;20046;-86
2023/08/03 05:53:12;;;;;;;12.23;3.97;;;;;;;;;;4970690;28;20046;-87
2023/08/03 05:55:41;;;;;;;11.23;4.03;;;;;;;;;;4968878;28;20046;-86
2023/08/03 05:58:09;;;;;;;14.15;4.70;;;;;;;;;;4964017;28;20078;-86
2023/08/03 06:00:35;;;;;;;11.15;4.60;;;;;;;;;;4981744;28;20521;-86
2023/08/03 06:03:03;;;;;;;10.10;3.88;;;;;;;;;;4955532;28;20395;-86
2023/08/03 06:05:34;;;;;;;8.25;4.53;;;;;;;;;;4947499;28;20046;-86
2023/08/03 06:08:00;;;;;;;12.77;4.30;;;;;;;;;;4965218;28;20394;-86
2023/08/03 06:10:26;;;;;;;13.77;4.00;;;;;;;;;;4949353;28;20050;-86
2023/08/03 06:12:56;;;;;;;15.95;4.78;;;;;;;;;;4948397;28;20050;-86
2023/08/03 06:15:23;;;;;;;14.70;4.82;;;;;;;;;;4981622;28;20514;-85
2023/08/03 06:18:02;;;;;;;12.48;4.50;;;;;;;;;;4963696;28;20498;-86
2023/08/03 06:20:28;;;;;;;10.82;4.30;;;;;;;;;;4965067;28;20066;-85
2023/08/03 06:22:55;;;;;;;12.70;4.40;;;;;;;;;;4946571;28;22120;-86
2023/08/03 06:25:24;;;;;;;14.52;3.95;;;;;;;;;;4963199;28;20050;-86
2023/08/03 06:27:55;;;;;;;11.15;4.50;;;;;;;;;;4978607;28;20329;-86
2023/08/03 06:30:21;;;;;;;10.65;4.35;;;;;;;;;;4982129;28;20179;-87
2023/08/03 06:32:47;;;;;;;13.32;4.13;;;;;;;;;;4966530;28;20042;-86
2023/08/03 06:35:32;;;;;;;9.32;3.85;;;;;;;;;;4971085;28;20042;-86
2023/08/03 06:38:02;;;;;;;12.20;3.75;;;;;;;;;;4951383;28;20061;-86
2023/08/03 06:41:07;;;;;;;10.63;3.70;;;;;;;;;;4953235;28;20042;-87
2023/08/03 06:47:13;;;;;;;8.85;3.10;;;;;;;;;;4998523;28;20149;-82
2023/08/03 06:53:46;;;;;;;6.70;2.90;;;;;;;;;;4951587;28;20321;-87
2023/08/03 07:03:39;;;;;;;9.93;2.40;;;;;;;;;;4848145;29;20140;-87
2023/08/03 07:16:24;;;;;;;7.90;2.17;;;;;;;;;;4812412;29;20050;-86
2023/08/03 07:26:07;;;;;;;4.93;1.85;;;;;;;;;;4799999;29;20059;-86
2023/08/03 07:36:15;;;;;;;;;;;;;;;;;;;;;
2023/08/03 07:42:48;;;;;;;3.03;1.20;;;;;;;;;;4798589;29;20042;-87
2023/08/03 07:45:20;;;;;;;3.25;0.98;;;;;;;;;;4796612;29;20057;-86
2023/08/03 07:48:07;;;;;;;1.88;0.85;;;;;;;;;;4801943;29;20442;-87
2023/08/03 07:50:39;;;;;;;;;;;;;;;;;;4817602;29;20070;-85
2023/08/03 07:57:15;;;;;;;;;;;;;;;;;;;;;
2023/08/03 08:03:47;;;;;;;2.90;1.13;;;;;;;;;;4907119;29;20059;-84
2023/08/03 08:17:37;;;;;;;3.17;0.90;;;;;;;;;;4790979;29;20051;-86
2023/08/03 08:20:04;;;;;;;5.03;1.05;;;;;;;;;;4805131;29;20562;-84
2023/08/03 08:26:14;;;;;;;3.80;0.70;;;;;;;;;;4830233;29;20505;-86
2023/08/03 08:29:06;;;;;;;6.43;1.15;;;;;;;;;;4875313;29;20044;-86
2023/08/03 08:31:33;;;;;;;4.85;0.90;;;;;;;;;;4868458;29;20051;-84
2023/08/03 08:33:59;;;;;;;3.25;0.75;;;;;;;;;;4881234;29;20059;-83
2023/08/03 08:36:25;;;;;;;4.90;0.75;;;;;;;;;;4894800;29;20404;-87
2023/08/03 08:38:51;;;;;;;3.97;0.70;;;;;;;;;;4900316;29;20456;-86
2023/08/03 08:41:20;;;;;;;3.55;0.70;;;;;;;;;;4901514;29;20451;-83
2023/08/03 08:43:48;;;;;;;3.70;0.90;;;;;;;;;;4881273;29;20681;-83
2023/08/03 08:46:15;;;;;;;6.05;0.90;;;;;;;;;;4886698;29;20060;-85
2023/08/03 08:48:49;;;;;;;5.72;0.82;;;;;;;;;;4886812;29;20036;-84
2023/08/03 08:51:16;;;;;;;2.80;0.63;;;;;;;;;;4882949;29;20664;-86
2023/08/03 08:53:42;;;;;;;2.42;0.65;;;;;;;;;;4886436;29;20049;-85
2023/08/03 08:56:08;;;;;;;3.15;0.93;;;;;;;;;;4908243;28;20077;-86
2023/08/03 08:58:34;;;;;;;3.75;0.73;;;;;;;;;;4945934;28;20051;-85
2023/08/03 09:01:05;;;;;;;2.83;0.70;;;;;;;;;;4944678;28;20117;-86
2023/08/03 09:03:47;;;;;;;4.53;0.77;;;;;;;;;;4944506;28;20069;-86
2023/08/03 09:06:14;;;;;;;3.72;1.13;;;;;;;;;;4946273;28;20051;-86
2023/08/03 09:08:50;;;;;;;3.83;1.02;;;;;;;;;;4945106;28;20085;-87
2023/08/03 09:11:16;;;;;;;2.92;0.90;;;;;;;;;;4957379;28;20054;-85
2023/08/03 09:13:42;;;;;;;4.20;1.25;;;;;;;;;;4939422;28;20082;-85
2023/08/03 09:16:29;;;;;;;3.15;0.80;;;;;;;;;;4956233;28;20554;-86
2023/08/03 09:18:55;;;;;;;10.57;0.93;;;;;;;;;;4926470;28;20062;-85
2023/08/03 09:21:22;;;;;;;5.60;0.80;;;;;;;;;;4963839;28;20499;-84
2023/08/03 09:23:48;;;;;;;3.75;0.77;;;;;;;;;;4981624;28;20323;-86
2023/08/03 09:26:14;;;;;;;3.72;0.80;;;;;;;;;;4967994;28;20081;-85
2023/08/03 09:28:43;;;;;;;5.90;0.80;;;;;;;;;;4944836;28;20495;-85
2023/08/03 09:31:10;;;;;;;3.97;1.00;;;;;;;;;;4947910;28;20080;-86
2023/08/03 09:33:39;;;;;;;4.00;0.85;;;;;;;;;;4965623;28;20046;-86
2023/08/03 09:36:05;;;;;;;5.45;0.93;;;;;;;;;;4979772;28;20054;-86
2023/08/03 09:38:34;;;;;;;3.85;0.80;;;;;;;;;;4964479;28;20656;-85
2023/08/03 09:41:00;;;;;;;5.57;0.90;;;;;;;;;;4965622;28;20085;-86
2023/08/03 09:43:27;;;;;;;4.80;1.00;;;;;;;;;;4964643;28;20133;-86
2023/08/03 09:45:53;;;;;;;7.63;1.00;;;;;;;;;;4963169;28;20129;-85
2023/08/03 09:48:20;;;;;;;5.25;0.93;;;;;;;;;;4949716;28;20050;-85
2023/08/03 09:50:56;;;;;;;4.25;0.90;;;;;;;;;;4949795;28;20046;-85
2023/08/03 09:53:25;;;;;;;3.67;0.85;;;;;;;;;;4965190;28;20581;-85
2023/08/03 09:56:02;;;;;;;5.32;1.23;;;;;;;;;;4963009;28;20406;-85
2023/08/03 09:58:39;;;;;;;4.10;0.80;;;;;;;;;;4980575;28;20054;-86
2023/08/03 10:01:09;;;;;;;4.43;0.88;;;;;;;;;;4978639;28;20054;-85
2023/08/03 10:03:36;;;;;;;3.60;0.80;;;;;;;;;;4964726;28;20742;-84
2023/08/03 10:06:02;;;;;;;3.38;0.88;;;;;;;;;;4965853;28;20096;-85
2023/08/03 10:08:33;;;;;;;5.30;1.20;;;;;;;;;;4947949;28;20154;-85
2023/08/03 10:11:01;;;;;;;4.93;0.85;;;;;;;;;;4965431;28;20050;-85
2023/08/03 10:13:28;;;;;;;4.20;1.10;;;;;;;;;;4969083;28;20582;-85
2023/08/03 10:15:54;;;;;;;3.33;0.95;;;;;;;;;;4971787;28;20046;-85
2023/08/03 10:18:21;;;;;;;7.38;1.20;;;;;;;;;;4962022;28;20042;-85
2023/08/03 10:20:50;;;;;;;4.43;1.05;;;;;;;;;;4969096;28;20093;-85
2023/08/03 10:23:19;;;;;;;4.68;1.00;;;;;;;;;;4966833;28;20068;-85
2023/08/03 10:25:52;;;;;;;5.40;1.30;;;;;;;;;;4962338;28;20141;-85
2023/08/03 10:28:18;;;;;;;7.72;1.60;;;;;;;;;;4965621;28;20460;-85
2023/08/03 10:31:10;;;;;;;6.50;1.10;;;;;;;;;;4979030;28;20495;-86
2023/08/03 10:33:52;;;;;;;5.40;0.90;;;;;;;;;;4954489;28;20188;-85
2023/08/03 10:36:30;;;;;;;6.95;1.10;;;;;;;;;;4947689;28;20072;-86
2023/08/03 10:38:56;;;;;;;7.28;1.17;;;;;;;;;;4982872;28;20053;-85
2023/08/03 10:41:38;;;;;;;3.92;0.90;;;;;;;;;;4964938;28;20034;-85
2023/08/03 10:44:14;;;;;;;7.10;1.35;;;;;;;;;;4959796;28;20096;-85
2023/08/03 10:46:44;;;;;;;5.28;0.95;;;;;;;;;;4949706;28;20066;-86
2023/08/03 10:49:23;;;;;;;6.18;1.10;;;;;;;;;;4960006;28;20250;-85
2023/08/03 10:51:56;;;;;;;5.05;1.20;;;;;;;;;;4946393;28;20050;-86
2023/08/03 10:54:28;;;;;;;5.32;1.25;;;;;;;;;;4962635;28;20549;-85
2023/08/03 10:57:04;;;;;;;5.32;1.13;;;;;;;;;;4962416;28;20053;-85
2023/08/03 10:59:37;;;;;;;5.30;0.90;;;;;;;;;;4961857;28;20050;-86
2023/08/03 11:02:22;;;;;;;3.38;1.02;;;;;;;;;;4960819;28;20125;-86
2023/08/03 11:05:01;;;;;;;4.28;1.20;;;;;;;;;;4943639;28;20550;-85
2023/08/03 11:07:34;;;;;;;6.60;1.27;;;;;;;;;;4939223;28;20489;-85
2023/08/03 11:10:04;;;;;;;7.10;1.10;;;;;;;;;;4958379;28;20065;-85
2023/08/03 11:12:30;;;;;;;3.70;0.82;;;;;;;;;;4961168;28;20668;-85
2023/08/03 11:15:00;;;;;;;4.20;1.02;;;;;;;;;;4975851;28;20050;-85
2023/08/03 11:17:27;;;;;;;3.72;0.70;;;;;;;;;;4959955;28;20132;-85
2023/08/03 11:19:54;;;;;;;3.00;0.80;;;;;;;;;;4957749;28;20053;-86
2023/08/03 11:22:23;;;;;;;6.40;1.02;;;;;;;;;;4976357;28;20053;-85
2023/08/03 11:24:51;;;;;;;3.15;0.80;;;;;;;;;;4955976;28;20046;-86
2023/08/03 11:27:17;;;;;;;5.68;1.15;;;;;;;;;;4944433;28;20611;-85
2023/08/03 11:29:43;;;;;;;4.85;1.00;;;;;;;;;;4960209;28;20101;-85
2023/08/03 11:32:13;;;;;;;5.40;1.05;;;;;;;;;;4944817;28;20049;-85
2023/08/03 11:34:43;;;;;;;6.38;1.27;;;;;;;;;;4959853;28;20153;-85
2023/08/03 11:37:10;;;;;;;5.95;0.95;;;;;;;;;;4975584;28;20046;-85
2023/08/03 11:39:36;;;;;;;3.27;0.97;;;;;;;;;;4962954;28;20065;-85
2023/08/03 11:42:02;;;;;;;6.85;1.13;;;;;;;;;;4959841;28;20105;-85
2023/08/03 11:44:29;;;;;;;5.30;0.68;;;;;;;;;;4976389;28;20054;-85
2023/08/03 11:47:05;;;;;;;2.92;0.77;;;;;;;;;;4976765;28;20050;-85
2023/08/03 11:49:34;;;;;;;2.85;0.80;;;;;;;;;;4977888;28;20137;-85
2023/08/03 11:52:01;;;;;;;4.43;0.90;;;;;;;;;;4958334;28;20061;-85
2023/08/03 11:54:29;;;;;;;2.30;0.75;;;;;;;;;;4977526;28;20491;-84
2023/08/03 11:59:41;;;;;;;3.42;0.80;;;;;;;;;;4976082;28;20514;-85
2023/08/03 12:02:07;;;;;;;5.93;1.33;;;;;;;;;;4960701;28;20050;-85
2023/08/03 12:04:33;;;;;;;4.55;0.82;;;;;;;;;;4944246;28;20051;-84
2023/08/03 12:06:59;;;;;;;4.18;1.00;;;;;;;;;;4977749;28;20057;-85
2023/08/03 12:09:26;;;;;;;4.38;0.82;;;;;;;;;;4959831;28;20570;-85
2023/08/03 12:12:06;;;;;;;4.07;0.75;;;;;;;;;;4946761;28;20054;-85
2023/08/03 12:14:32;;;;;;;3.03;0.80;;;;;;;;;;4962747;28;20046;-85
2023/08/03 12:16:58;;;;;;;8.43;1.20;;;;;;;;;;4960136;28;20089;-85
2023/08/03 12:19:27;;;;;;;2.60;0.90;;;;;;;;;;4978416;28;20065;-85
2023/08/03 12:21:54;;;;;;;4.93;1.13;;;;;;;;;;4973849;28;20048;-84
2023/08/03 12:24:22;;;;;;;3.35;1.10;;;;;;;;;;4962650;28;20081;-85
2023/08/03 12:26:51;;;;;;;4.07;0.88;;;;;;;;;;4959786;28;20144;-84
2023/08/03 12:29:17;;;;;;;4.45;1.00;;;;;;;;;;4957044;28;20066;-85
2023/08/03 12:31:43;;;;;;;1.40;0.60;;;;;;;;;;4960644;28;20046;-84
2023/08/03 12:34:09;;;;;;;4.13;0.60;;;;;;;;;;4960592;28;20128;-85
2023/08/03 12:36:37;;;;;;;4.50;1.00;;;;;;;;;;4965438;28;20053;-85
2023/08/03 12:39:05;;;;;;;3.63;0.85;;;;;;;;;;4946277;28;20097;-85
2023/08/03 12:41:31;;;;;;;8.73;1.33;;;;;;;;;;4960255;28;20053;-86
2023/08/03 12:43:57;;;;;;;4.05;0.60;;;;;;;;;;4962301;28;20068;-85
2023/08/03 12:46:26;;;;;;;4.07;0.80;;;;;;;;;;4960479;28;20462;-85
2023/08/03 12:48:52;;;;;;;3.72;0.90;;;;;;;;;;4947170;28;20077;-85
2023/08/03 12:51:19;;;;;;;5.03;0.90;;;;;;;;;;4961313;28;20498;-84
2023/08/03 12:53:46;;;;;;;6.90;1.02;;;;;;;;;;4942503;28;20049;-84
2023/08/03 12:56:12;;;;;;;8.65;1.00;;;;;;;;;;4966690;28;20134;-85
2023/08/03 12:58:38;;;;;;;6.82;1.60;;;;;;;;;;4947242;28;20054;-85
2023/08/03 13:01:05;;;;;;;7.20;1.50;;;;;;;;;;4959520;28;20495;-86
2023/08/03 13:03:31;;;;;;;7.85;1.50;;;;;;;;;;4965447;28;20169;-85
2023/08/03 13:05:57;;;;;;;6.82;1.42;;;;;;;;;;4946045;28;20794;-85
2023/08/03 13:08:23;;;;;;;7.00;1.50;;;;;;;;;;4949338;28;20045;-84
2023/08/03 13:10:50;;;;;;;6.55;1.52;;;;;;;;;;4966336;28;20368;-85
2023/08/03 13:13:17;;;;;;;6.72;1.50;;;;;;;;;;4962939;28;20050;-85
2023/08/03 13:15:49;;;;;;;8.30;1.33;;;;;;;;;;4951065;28;20081;-85
2023/08/03 13:18:15;;;;;;;6.40;1.30;;;;;;;;;;4966083;28;20050;-85
2023/08/03 13:20:41;;;;;;;5.85;1.58;;;;;;;;;;4980648;28;20188;-85
2023/08/03 13:23:08;;;;;;;6.28;1.00;;;;;;;;;;4948180;28;20061;-86
2023/08/03 13:25:34;;;;;;;6.15;1.27;;;;;;;;;;4964901;28;20077;-85
2023/08/03 13:28:00;;;;;;;7.25;1.20;;;;;;;;;;4949827;28;20545;-85
2023/08/03 13:30:27;;;;;;;9.50;1.40;;;;;;;;;;4966393;28;20042;-84
2023/08/03 13:32:53;;;;;;;6.05;1.20;;;;;;;;;;4964720;28;20052;-85
2023/08/03 13:35:19;;;;;;;5.72;1.35;;;;;;;;;;4963881;28;20077;-85
2023/08/03 13:37:45;;;;;;;5.43;1.35;;;;;;;;;;4963882;28;20081;-86
2023/08/03 13:40:14;;;;;;;4.03;1.33;;;;;;;;;;4949874;28;20046;-85
2023/08/03 13:42:40;;;;;;;6.55;1.58;;;;;;;;;;4964833;28;20051;-86
2023/08/03 13:45:07;;;;;;;4.38;1.42;;;;;;;;;;4962993;28;20871;-84
2023/08/03 13:47:33;;;;;;;10.73;1.85;;;;;;;;;;4964062;28;20050;-86
2023/08/03 13:49:59;;;;;;;12.05;1.90;;;;;;;;;;4963999;28;20108;-85
2023/08/03 13:52:25;;;;;;;7.32;1.83;;;;;;;;;;4982972;28;20133;-84
2023/08/03 13:54:51;;;;;;;9.70;2.15;;;;;;;;;;4967217;28;20068;-85
2023/08/03 13:57:18;;;;;;;9.32;2.50;;;;;;;;;;4964270;28;20473;-84
2023/08/03 13:59:50;;;;;;;11.95;2.20;;;;;;;;;;4950010;28;20046;-85
2023/08/03 14:02:16;;;;;;;9.15;2.17;;;;;;;;;;4979973;28;20054;-84
2023/08/03 14:04:42;;;;;;;11.98;2.47;;;;;;;;;;4947113;28;20057;-84
2023/08/03 14:07:11;;;;;;;13.40;2.80;;;;;;;;;;4979693;28;20312;-85
2023/08/03 14:09:37;;;;;;;11.05;2.28;;;;;;;;;;4976479;28;20046;-85
2023/08/03 14:12:05;;;;;;;13.15;2.60;;;;;;;;;;4962878;28;20054;-85
2023/08/03 14:14:31;;;;;;;14.52;3.03;;;;;;;;;;4946403;28;20046;-85
2023/08/03 14:16:57;;;;;;;10.18;2.75;;;;;;;;;;4977960;28;20054;-85
2023/08/03 14:19:23;;;;;;;10.90;2.17;;;;;;;;;;4980809;28;20049;-87
2023/08/03 14:21:49;;;;;;;9.07;2.45;;;;;;;;;;4948453;28;20050;-85
2023/08/03 14:24:15;;;;;;;10.88;2.33;;;;;;;;;;4981475;28;20030;-86
2023/08/03 14:26:44;;;;;;;7.35;2.17;;;;;;;;;;4961087;28;20891;-84
2023/08/03 14:29:13;;;;;;;9.95;2.28;;;;;;;;;;4950115;28;20554;-85
2023/08/03 14:31:45;;;;;;;11.77;2.83;;;;;;;;;;4960853;28;20070;-85
2023/08/03 14:34:11;;;;;;;7.35;2.13;;;;;;;;;;4962334;28;20062;-84
2023/08/03 14:36:37;;;;;;;13.27;2.60;;;;;;;;;;4963197;28;20406;-84
2023/08/03 14:39:03;;;;;;;10.20;2.95;;;;;;;;;;4962394;28;20133;-84
2023/08/03 14:41:29;;;;;;;9.55;2.20;;;;;;;;;;4958533;28;20052;-84
2023/08/03 14:43:55;;;;;;;9.75;2.15;;;;;;;;;;4976519;28;20043;-86
2023/08/03 14:46:24;;;;;;;6.95;2.13;;;;;;;;;;4958223;28;20546;-85
2023/08/03 14:48:51;;;;;;;7.40;2.08;;;;;;;;;;4948863;28;20085;-84
2023/08/03 14:51:17;;;;;;;12.27;2.70;;;;;;;;;;4950352;28;20046;-86
2023/08/03 14:53:45;;;;;;;13.43;2.75;;;;;;;;;;4963699;28;20434;-84
2023/08/03 14:56:12;;;;;;;10.65;2.45;;;;;;;;;;4964204;28;20057;-85
2023/08/03 14:58:38;;;;;;;13.15;2.75;;;;;;;;;;4962784;28;20145;-84
2023/08/03 15:01:06;;;;;;;12.95;3.15;;;;;;;;;;4961789;28;20081;-85
2023/08/03 15:03:35;;;;;;;13.70;2.78;;;;;;;;;;4949915;28;20062;-84
2023/08/03 15:06:10;;;;;;;11.38;2.63;;;;;;;;;;4944224;28;20065;-85
2023/08/03 15:08:36;;;;;;;7.95;2.90;;;;;;;;;;4967114;28;20053;-85
2023/08/03 15:11:05;;;;;;;12.13;3.08;;;;;;;;;;4979540;28;20066;-84
2023/08/03 15:13:34;;;;;;;11.10;3.20;;;;;;;;;;4958703;28;20042;-85
2023/08/03 15:16:33;;;;;;;14.75;3.28;;;;;;;;;;4961167;28;20571;-85
2023/08/03 15:18:59;;;;;;;15.75;3.35;;;;;;;;;;4938838;28;20055;-84
2023/08/03 15:21:30;;;;;;;14.23;3.33;;;;;;;;;;4968068;28;20054;-85
2023/08/03 15:23:57;;;;;;;15.32;3.30;;;;;;;;;;4969245;28;20125;-86
2023/08/03 15:26:23;;;;;;;16.90;4.00;;;;;;;;;;4968051;28;20481;-85
2023/08/03 15:28:49;;;;;;;16.75;4.20;;;;;;;;;;4966794;28;20257;-89
2023/08/03 15:31:18;;;;;;;18.83;4.05;;;;;;;;;;4997593;28;20093;-89
2023/08/03 15:33:49;;;;;;;8.35;2.40;;;;;;;;;;4965786;28;20316;-88
2023/08/03 15:36:21;;;;;;;8.73;2.40;;;;;;;;;;4977611;28;20086;-86
2023/08/03 15:38:48;;;;;;;10.07;2.40;;;;;;;;;;4982972;28;20472;-86
2023/08/03 15:41:26;;;;;;;7.78;2.20;;;;;;;;;;4969385;28;20417;-85
2023/08/03 15:43:52;;;;;;;8.70;2.22;;;;;;;;;;4966618;28;20096;-85
2023/08/03 15:46:18;;;;;;;8.43;2.65;;;;;;;;;;4984405;28;20038;-86
2023/08/03 15:48:47;;;;;;;7.18;2.35;;;;;;;;;;4971925;28;20406;-87
2023/08/03 15:51:13;;;;;;;8.63;2.67;;;;;;;;;;4977034;28;20053;-86
2023/08/03 15:53:40;;;;;;;8.95;2.47;;;;;;;;;;4982953;28;20430;-86
2023/08/03 15:56:06;;;;;;;6.53;2.28;;;;;;;;;;4951300;28;20046;-86